sensor_id;sensor_type;location;lat;lon;timestamp;pressure;altitude;pressure_sealevel;temperature;humidity
21728;BME280;11026;50.560;17.852;2022-11-23T00:01:21;98519.59;;;0.82;100.00
21728;BME280;11026;50.560;17.852;2022-11-23T00:03:51;98512.88;;;0.71;100.00
21728;BME280;11026;50.560;17.852;2022-11-23T00:06:19;98510.44;;;0.62;100.00
21728;BME280;11026;50.560;17.852;2022-11-23T00:08:49;98519.97;;;0.65;100.00
21728;BME280;11026;50.560;17.852;2022-11-23T00:11:18;98522.34;;;0.76;100.00
21728;BME280;11026;50.560;17.852;2022-11-23T00:13:46;98522.91;;;0.90;100.00
21728;BME280;11026;50.560;17.852;2022-11-23T00:16:20;98522.00;;;0.92;100.00
21728;BME280;11026;50.560;17.852;2022-11-23T00:18:50;98519.81;;;0.72;100.00
21728;BME280;11026;50.560;17.852;2022-11-23T00:21:18;98521.91;;;0.54;100.00
21728;BME280;11026;50.560;17.852;2022-11-23T00:23:48;98518.56;;;0.48;100.00
21728;BME280;11026;50.560;17.852;2022-11-23T00:26:16;98519.41;;;0.49;100.00
21728;BME280;11026;50.560;17.852;2022-11-23T00:28:46;98524.72;;;0.43;100.00
21728;BME280;11026;50.560;17.852;2022-11-23T00:31:16;98523.81;;;0.45;100.00
21728;BME280;11026;50.560;17.852;2022-11-23T00:33:54;98527.41;;;0.40;100.00
21728;BME280;11026;50.560;17.852;2022-11-23T00:36:23;98528.34;;;0.36;100.00
21728;BME280;11026;50.560;17.852;2022-11-23T00:38:51;98526.59;;;0.35;100.00
21728;BME280;11026;50.560;17.852;2022-11-23T00:41:22;98528.16;;;0.45;100.00
21728;BME280;11026;50.560;17.852;2022-11-23T00:43:51;98533.56;;;0.34;100.00
21728;BME280;11026;50.560;17.852;2022-11-23T00:46:21;98533.69;;;0.27;100.00
21728;BME280;11026;50.560;17.852;2022-11-23T00:48:51;98544.44;;;0.08;100.00
21728;BME280;11026;50.560;17.852;2022-11-23T00:51:20;98538.81;;;0.33;100.00
21728;BME280;11026;50.560;17.852;2022-11-23T00:53:53;98541.25;;;0.40;100.00
21728;BME280;11026;50.560;17.852;2022-11-23T00:56:21;98543.53;;;0.57;100.00
21728;BME280;11026;50.560;17.852;2022-11-23T00:58:49;98537.44;;;0.58;100.00
21728;BME280;11026;50.560;17.852;2022-11-23T01:01:20;98541.88;;;0.53;100.00
21728;BME280;11026;50.560;17.852;2022-11-23T01:03:52;98532.50;;;0.44;100.00
21728;BME280;11026;50.560;17.852;2022-11-23T01:06:22;98534.22;;;0.45;100.00
21728;BME280;11026;50.560;17.852;2022-11-23T01:08:58;98543.19;;;0.29;100.00
21728;BME280;11026;50.560;17.852;2022-11-23T01:11:27;98541.91;;;0.04;100.00
21728;BME280;11026;50.560;17.852;2022-11-23T01:13:57;98541.72;;;0.14;100.00
21728;BME280;11026;50.560;17.852;2022-11-23T01:16:30;98543.63;;;0.05;100.00
21728;BME280;11026;50.560;17.852;2022-11-23T01:18:59;98536.66;;;0.07;100.00
21728;BME280;11026;50.560;17.852;2022-11-23T01:21:29;98529.03;;;-0.03;100.00
21728;BME280;11026;50.560;17.852;2022-11-23T01:23:56;98526.31;;;0.04;100.00
21728;BME280;11026;50.560;17.852;2022-11-23T01:26:24;98531.59;;;-0.01;100.00
21728;BME280;11026;50.560;17.852;2022-11-23T01:28:51;98531.78;;;-0.12;100.00
21728;BME280;11026;50.560;17.852;2022-11-23T01:31:22;98528.50;;;-0.23;100.00
21728;BME280;11026;50.560;17.852;2022-11-23T01:33:54;98522.63;;;-0.36;100.00
21728;BME280;11026;50.560;17.852;2022-11-23T01:36:25;98527.84;;;-0.36;100.00
21728;BME280;11026;50.560;17.852;2022-11-23T01:38:53;98525.22;;;-0.36;100.00
21728;BME280;11026;50.560;17.852;2022-11-23T01:41:23;98532.97;;;-0.31;100.00
21728;BME280;11026;50.560;17.852;2022-11-23T01:43:52;98539.16;;;-0.40;100.00
21728;BME280;11026;50.560;17.852;2022-11-23T01:46:26;98533.75;;;-0.26;100.00
21728;BME280;11026;50.560;17.852;2022-11-23T01:49:02;98538.13;;;-0.30;100.00
21728;BME280;11026;50.560;17.852;2022-11-23T01:51:44;98539.16;;;-0.40;100.00
21728;BME280;11026;50.560;17.852;2022-11-23T01:54:35;98536.75;;;-0.52;100.00
21728;BME280;11026;50.560;17.852;2022-11-23T01:57:12;98535.50;;;-0.27;100.00
21728;BME280;11026;50.560;17.852;2022-11-23T01:59:42;98543.09;;;-0.14;100.00
21728;BME280;11026;50.560;17.852;2022-11-23T02:02:11;98545.69;;;-0.14;100.00
21728;BME280;11026;50.560;17.852;2022-11-23T02:04:41;98552.16;;;-0.40;100.00
21728;BME280;11026;50.560;17.852;2022-11-23T02:07:10;98555.69;;;-0.44;100.00
21728;BME280;11026;50.560;17.852;2022-11-23T02:09:40;98549.84;;;-0.60;100.00
21728;BME280;11026;50.560;17.852;2022-11-23T02:12:13;98562.88;;;-0.61;100.00
21728;BME280;11026;50.560;17.852;2022-11-23T02:14:41;98561.13;;;-0.59;100.00
21728;BME280;11026;50.560;17.852;2022-11-23T02:17:08;98557.06;;;-0.79;100.00
21728;BME280;11026;50.560;17.852;2022-11-23T02:22:34;98549.56;;;-1.00;100.00
21728;BME280;11026;50.560;17.852;2022-11-23T02:25:09;98554.06;;;-1.13;100.00
21728;BME280;11026;50.560;17.852;2022-11-23T02:27:41;98552.34;;;-1.14;100.00
21728;BME280;11026;50.560;17.852;2022-11-23T02:30:16;98547.09;;;-1.09;100.00
21728;BME280;11026;50.560;17.852;2022-11-23T02:32:44;98551.41;;;-1.08;100.00
21728;BME280;11026;50.560;17.852;2022-11-23T02:35:11;98541.09;;;-1.13;100.00
21728;BME280;11026;50.560;17.852;2022-11-23T02:37:39;98540.84;;;-0.96;100.00
21728;BME280;11026;50.560;17.852;2022-11-23T02:40:28;98544.09;;;-0.79;100.00
21728;BME280;11026;50.560;17.852;2022-11-23T02:42:57;98543.38;;;-0.90;100.00
21728;BME280;11026;50.560;17.852;2022-11-23T02:48:05;98538.00;;;-0.78;100.00
21728;BME280;11026;50.560;17.852;2022-11-23T02:50:51;98549.28;;;-0.80;100.00
21728;BME280;11026;50.560;17.852;2022-11-23T02:53:20;98545.09;;;-0.89;100.00
21728;BME280;11026;50.560;17.852;2022-11-23T02:55:48;98541.81;;;-1.02;100.00
21728;BME280;11026;50.560;17.852;2022-11-23T02:58:15;98539.38;;;-1.14;100.00
21728;BME280;11026;50.560;17.852;2022-11-23T03:00:45;98538.59;;;-1.20;100.00
21728;BME280;11026;50.560;17.852;2022-11-23T03:03:12;98534.16;;;-1.12;100.00
21728;BME280;11026;50.560;17.852;2022-11-23T03:05:39;98531.44;;;-1.05;100.00
21728;BME280;11026;50.560;17.852;2022-11-23T03:08:06;98530.50;;;-0.99;100.00
21728;BME280;11026;50.560;17.852;2022-11-23T03:10:35;98532.25;;;-0.98;100.00
21728;BME280;11026;50.560;17.852;2022-11-23T03:13:03;98532.09;;;-0.89;100.00
21728;BME280;11026;50.560;17.852;2022-11-23T03:15:32;98528.69;;;-0.91;100.00
21728;BME280;11026;50.560;17.852;2022-11-23T03:17:59;98531.81;;;-0.69;100.00
21728;BME280;11026;50.560;17.852;2022-11-23T03:20:26;98534.38;;;-0.67;100.00
21728;BME280;11026;50.560;17.852;2022-11-23T03:22:53;98542.97;;;-0.62;100.00
21728;BME280;11026;50.560;17.852;2022-11-23T03:25:21;98543.25;;;-0.81;100.00
21728;BME280;11026;50.560;17.852;2022-11-23T03:27:48;98538.34;;;-1.04;100.00
21728;BME280;11026;50.560;17.852;2022-11-23T03:30:15;98536.09;;;-1.27;100.00
21728;BME280;11026;50.560;17.852;2022-11-23T03:32:42;98530.28;;;-1.49;100.00
21728;BME280;11026;50.560;17.852;2022-11-23T03:35:10;98531.81;;;-1.32;100.00
21728;BME280;11026;50.560;17.852;2022-11-23T03:37:37;98534.94;;;-1.07;100.00
21728;BME280;11026;50.560;17.852;2022-11-23T03:40:05;98537.25;;;-0.86;100.00
21728;BME280;11026;50.560;17.852;2022-11-23T03:42:33;98539.00;;;-0.88;100.00
21728;BME280;11026;50.560;17.852;2022-11-23T03:45:02;98538.97;;;-0.85;100.00
21728;BME280;11026;50.560;17.852;2022-11-23T03:47:30;98534.63;;;-0.83;100.00
21728;BME280;11026;50.560;17.852;2022-11-23T03:50:04;98533.69;;;-0.79;100.00
21728;BME280;11026;50.560;17.852;2022-11-23T03:52:32;98534.66;;;-0.87;100.00
21728;BME280;11026;50.560;17.852;2022-11-23T03:54:59;98532.13;;;-0.92;100.00
21728;BME280;11026;50.560;17.852;2022-11-23T03:57:27;98533.16;;;-1.04;100.00
21728;BME280;11026;50.560;17.852;2022-11-23T03:59:54;98526.13;;;-0.94;100.00
21728;BME280;11026;50.560;17.852;2022-11-23T04:02:21;98530.28;;;-0.84;100.00
21728;BME280;11026;50.560;17.852;2022-11-23T04:04:48;98516.19;;;-0.67;100.00
21728;BME280;11026;50.560;17.852;2022-11-23T04:07:15;98514.13;;;-1.04;100.00
21728;BME280;11026;50.560;17.852;2022-11-23T04:09:44;98515.16;;;-1.14;100.00
21728;BME280;11026;50.560;17.852;2022-11-23T04:12:12;98515.09;;;-1.10;100.00
21728;BME280;11026;50.560;17.852;2022-11-23T04:14:39;98517.53;;;-0.97;100.00
21728;BME280;11026;50.560;17.852;2022-11-23T04:17:07;98509.63;;;-0.91;100.00
21728;BME280;11026;50.560;17.852;2022-11-23T04:19:35;98518.16;;;-0.83;100.00
21728;BME280;11026;50.560;17.852;2022-11-23T04:22:02;98520.91;;;-0.91;100.00
21728;BME280;11026;50.560;17.852;2022-11-23T04:24:29;98520.28;;;-1.11;100.00
21728;BME280;11026;50.560;17.852;2022-11-23T04:26:57;98522.84;;;-1.07;100.00
21728;BME280;11026;50.560;17.852;2022-11-23T04:29:31;98517.66;;;-1.08;100.00
21728;BME280;11026;50.560;17.852;2022-11-23T04:32:00;98526.41;;;-1.14;100.00
21728;BME280;11026;50.560;17.852;2022-11-23T04:34:27;98530.78;;;-1.20;100.00
21728;BME280;11026;50.560;17.852;2022-11-23T04:36:57;98524.81;;;-1.26;100.00
21728;BME280;11026;50.560;17.852;2022-11-23T04:39:24;98530.00;;;-1.26;100.00
21728;BME280;11026;50.560;17.852;2022-11-23T04:41:54;98523.78;;;-1.11;100.00
21728;BME280;11026;50.560;17.852;2022-11-23T04:44:21;98525.38;;;-1.04;100.00
21728;BME280;11026;50.560;17.852;2022-11-23T04:46:49;98527.19;;;-1.09;100.00
21728;BME280;11026;50.560;17.852;2022-11-23T04:49:17;98527.94;;;-1.01;100.00
21728;BME280;11026;50.560;17.852;2022-11-23T04:51:44;98538.19;;;-0.90;100.00
21728;BME280;11026;50.560;17.852;2022-11-23T04:54:12;98531.22;;;-0.86;100.00
21728;BME280;11026;50.560;17.852;2022-11-23T04:56:45;98535.41;;;-0.78;100.00
21728;BME280;11026;50.560;17.852;2022-11-23T04:59:12;98528.59;;;-0.85;100.00
21728;BME280;11026;50.560;17.852;2022-11-23T05:01:39;98536.97;;;-0.67;100.00
21728;BME280;11026;50.560;17.852;2022-11-23T05:04:07;98528.22;;;-0.59;100.00
21728;BME280;11026;50.560;17.852;2022-11-23T05:06:41;98531.88;;;-0.73;100.00
21728;BME280;11026;50.560;17.852;2022-11-23T05:09:09;98540.47;;;-0.67;100.00
21728;BME280;11026;50.560;17.852;2022-11-23T05:11:36;98530.13;;;-0.71;100.00
21728;BME280;11026;50.560;17.852;2022-11-23T05:14:04;98531.94;;;-0.77;100.00
21728;BME280;11026;50.560;17.852;2022-11-23T05:16:31;98533.59;;;-0.72;100.00
21728;BME280;11026;50.560;17.852;2022-11-23T05:18:58;98531.72;;;-0.61;100.00
21728;BME280;11026;50.560;17.852;2022-11-23T05:21:26;98534.31;;;-0.61;100.00
21728;BME280;11026;50.560;17.852;2022-11-23T05:23:54;98541.16;;;-0.57;100.00
21728;BME280;11026;50.560;17.852;2022-11-23T05:26:21;98537.38;;;-0.35;100.00
21728;BME280;11026;50.560;17.852;2022-11-23T05:28:48;98533.91;;;-0.35;100.00
21728;BME280;11026;50.560;17.852;2022-11-23T05:31:16;98534.78;;;-0.35;100.00
21728;BME280;11026;50.560;17.852;2022-11-23T05:33:44;98535.53;;;-0.30;100.00
21728;BME280;11026;50.560;17.852;2022-11-23T05:36:11;98539.00;;;-0.28;100.00
21728;BME280;11026;50.560;17.852;2022-11-23T05:38:42;98536.38;;;-0.28;100.00
21728;BME280;11026;50.560;17.852;2022-11-23T05:41:09;98535.50;;;-0.27;100.00
21728;BME280;11026;50.560;17.852;2022-11-23T05:43:38;98538.75;;;-0.14;100.00
21728;BME280;11026;50.560;17.852;2022-11-23T05:46:05;98535.16;;;-0.08;100.00
21728;BME280;11026;50.560;17.852;2022-11-23T05:48:33;98539.34;;;0.02;100.00
21728;BME280;11026;50.560;17.852;2022-11-23T05:51:01;98540.09;;;0.07;100.00
21728;BME280;11026;50.560;17.852;2022-11-23T05:53:31;98545.34;;;0.06;100.00
21728;BME280;11026;50.560;17.852;2022-11-23T05:55:59;98549.69;;;0.05;100.00
21728;BME280;11026;50.560;17.852;2022-11-23T05:58:33;98544.53;;;0.02;100.00
21728;BME280;11026;50.560;17.852;2022-11-23T06:01:00;98549.66;;;0.08;100.00
21728;BME280;11026;50.560;17.852;2022-11-23T06:03:28;98563.47;;;0.10;100.00
21728;BME280;11026;50.560;17.852;2022-11-23T06:05:55;98558.47;;;-0.02;100.00
21728;BME280;11026;50.560;17.852;2022-11-23T06:08:22;98558.56;;;-0.08;100.00
21728;BME280;11026;50.560;17.852;2022-11-23T06:10:50;98551.69;;;-0.12;100.00
21728;BME280;11026;50.560;17.852;2022-11-23T06:13:17;98560.59;;;-0.26;100.00
21728;BME280;11026;50.560;17.852;2022-11-23T06:15:45;98568.97;;;-0.08;100.00
21728;BME280;11026;50.560;17.852;2022-11-23T06:18:12;98562.78;;;0.01;100.00
21728;BME280;11026;50.560;17.852;2022-11-23T06:20:39;98572.63;;;-0.20;100.00
21728;BME280;11026;50.560;17.852;2022-11-23T06:23:06;98572.00;;;-0.34;100.00
21728;BME280;11026;50.560;17.852;2022-11-23T06:25:34;98576.41;;;-0.41;100.00
21728;BME280;11026;50.560;17.852;2022-11-23T06:28:01;98581.50;;;-0.33;100.00
21728;BME280;11026;50.560;17.852;2022-11-23T06:30:29;98580.03;;;-0.50;100.00
21728;BME280;11026;50.560;17.852;2022-11-23T06:32:57;98580.66;;;-0.34;100.00
21728;BME280;11026;50.560;17.852;2022-11-23T06:35:25;98575.94;;;-0.10;100.00
21728;BME280;11026;50.560;17.852;2022-11-23T06:37:52;98576.63;;;0.01;100.00
21728;BME280;11026;50.560;17.852;2022-11-23T06:40:20;98580.09;;;0.02;100.00
21728;BME280;11026;50.560;17.852;2022-11-23T06:42:48;98595.97;;;-0.15;100.00
21728;BME280;11026;50.560;17.852;2022-11-23T06:45:16;98595.97;;;-0.15;100.00
21728;BME280;11026;50.560;17.852;2022-11-23T06:47:44;98595.81;;;-0.06;100.00
21728;BME280;11026;50.560;17.852;2022-11-23T06:50:12;98605.28;;;-0.02;100.00
21728;BME280;11026;50.560;17.852;2022-11-23T06:52:41;98603.19;;;0.18;100.00
21728;BME280;11026;50.560;17.852;2022-11-23T06:55:08;98616.91;;;0.28;100.00
21728;BME280;11026;50.560;17.852;2022-11-23T06:57:36;98616.25;;;0.17;100.00
21728;BME280;11026;50.560;17.852;2022-11-23T07:00:04;98613.66;;;0.15;100.00
21728;BME280;11026;50.560;17.852;2022-11-23T07:02:31;98609.38;;;0.13;100.00
21728;BME280;11026;50.560;17.852;2022-11-23T07:04:59;98609.09;;;0.30;100.00
21728;BME280;11026;50.560;17.852;2022-11-23T07:07:26;98608.09;;;0.37;100.00
21728;BME280;11026;50.560;17.852;2022-11-23T07:09:54;98610.66;;;0.38;100.00
21728;BME280;11026;50.560;17.852;2022-11-23T07:12:23;98614.91;;;0.44;100.00
21728;BME280;11026;50.560;17.852;2022-11-23T07:14:52;98614.03;;;0.45;100.00
21728;BME280;11026;50.560;17.852;2022-11-23T07:17:19;98616.41;;;0.57;100.00
21728;BME280;11026;50.560;17.852;2022-11-23T07:19:48;98603.16;;;0.69;100.00
21728;BME280;11026;50.560;17.852;2022-11-23T07:22:15;98616.06;;;0.76;100.00
21728;BME280;11026;50.560;17.852;2022-11-23T07:24:42;98617.72;;;0.80;100.00
21728;BME280;11026;50.560;17.852;2022-11-23T07:27:12;98629.00;;;0.79;100.00
21728;BME280;11026;50.560;17.852;2022-11-23T07:43:05;98624.09;;;1.08;100.00
21728;BME280;11026;50.560;17.852;2022-11-23T07:45:33;98623.19;;;1.09;100.00
21728;BME280;11026;50.560;17.852;2022-11-23T07:48:04;98622.28;;;1.12;100.00
21728;BME280;11026;50.560;17.852;2022-11-23T07:50:32;98620.38;;;1.18;100.00
21728;BME280;11026;50.560;17.852;2022-11-23T07:53:03;98632.25;;;1.33;100.00
21728;BME280;11026;50.560;17.852;2022-11-23T07:55:32;98633.78;;;1.42;100.00
21728;BME280;11026;50.560;17.852;2022-11-23T07:57:59;98627.72;;;1.43;100.00
21728;BME280;11026;50.560;17.852;2022-11-23T08:00:27;98632.75;;;1.51;100.00
21728;BME280;11026;50.560;17.852;2022-11-23T08:02:57;98636.22;;;1.51;100.00
21728;BME280;11026;50.560;17.852;2022-11-23T08:05:44;98631.75;;;1.56;100.00
21728;BME280;11026;50.560;17.852;2022-11-23T08:08:12;98644.72;;;1.59;100.00
21728;BME280;11026;50.560;17.852;2022-11-23T08:10:40;98639.44;;;1.62;100.00
21728;BME280;11026;50.560;17.852;2022-11-23T08:13:14;98633.97;;;1.75;100.00
21728;BME280;11026;50.560;17.852;2022-11-23T08:15:41;98635.44;;;1.85;100.00
21728;BME280;11026;50.560;17.852;2022-11-23T08:18:09;98641.28;;;1.96;100.00
21728;BME280;11026;50.560;17.852;2022-11-23T08:20:36;98627.13;;;2.06;100.00
21728;BME280;11026;50.560;17.852;2022-11-23T08:23:06;98627.63;;;2.20;100.00
21728;BME280;11026;50.560;17.852;2022-11-23T08:25:33;98615.84;;;2.40;100.00
21728;BME280;11026;50.560;17.852;2022-11-23T08:28:02;98618.06;;;2.55;100.00
21728;BME280;11026;50.560;17.852;2022-11-23T08:30:30;98616.94;;;2.65;100.00
21728;BME280;11026;50.560;17.852;2022-11-23T08:32:58;98611.91;;;2.89;100.00
21728;BME280;11026;50.560;17.852;2022-11-23T08:35:26;98613.13;;;3.08;100.00
21728;BME280;11026;50.560;17.852;2022-11-23T08:37:54;98608.00;;;3.35;100.00
21728;BME280;11026;50.560;17.852;2022-11-23T08:40:22;98604.63;;;3.61;100.00
21728;BME280;11026;50.560;17.852;2022-11-23T08:42:51;98599.88;;;3.74;100.00
21728;BME280;11026;50.560;17.852;2022-11-23T08:45:18;98596.94;;;3.83;98.47
21728;BME280;11026;50.560;17.852;2022-11-23T08:47:45;98594.59;;;4.02;97.73
21728;BME280;11026;50.560;17.852;2022-11-23T08:50:13;98607.03;;;4.22;96.89
21728;BME280;11026;50.560;17.852;2022-11-23T08:52:42;98605.13;;;4.27;95.61
21728;BME280;11026;50.560;17.852;2022-11-23T08:55:10;98605.50;;;4.16;94.45
21728;BME280;11026;50.560;17.852;2022-11-23T08:57:37;98617.16;;;4.06;93.93
21728;BME280;11026;50.560;17.852;2022-11-23T09:00:07;98601.78;;;3.95;93.41
21728;BME280;11026;50.560;17.852;2022-11-23T09:02:37;98608.13;;;3.88;93.52
21728;BME280;11026;50.560;17.852;2022-11-23T09:05:05;98604.03;;;3.79;94.04
21728;BME280;11026;50.560;17.852;2022-11-23T09:07:33;98613.56;;;3.82;94.75
21728;BME280;11026;50.560;17.852;2022-11-23T09:10:01;98612.94;;;3.74;94.73
21728;BME280;11026;50.560;17.852;2022-11-23T09:12:29;98603.88;;;3.84;94.67
21728;BME280;11026;50.560;17.852;2022-11-23T09:14:56;98590.81;;;3.84;94.31
21728;BME280;11026;50.560;17.852;2022-11-23T09:17:23;98583.44;;;3.97;94.41
21728;BME280;11026;50.560;17.852;2022-11-23T09:19:50;98582.88;;;4.13;93.93
21728;BME280;11026;50.560;17.852;2022-11-23T09:22:17;98573.09;;;4.45;92.47
21728;BME280;11026;50.560;17.852;2022-11-23T09:24:44;98579.59;;;4.58;91.10
21728;BME280;11026;50.560;17.852;2022-11-23T09:27:11;98573.78;;;4.75;90.46
21728;BME280;11026;50.560;17.852;2022-11-23T09:29:38;98578.53;;;4.89;89.65
21728;BME280;11026;50.560;17.852;2022-11-23T09:32:06;98580.41;;;4.85;88.92
21728;BME280;11026;50.560;17.852;2022-11-23T09:34:33;98583.97;;;4.83;87.68
21728;BME280;11026;50.560;17.852;2022-11-23T09:37:03;98588.69;;;4.73;87.40
21728;BME280;11026;50.560;17.852;2022-11-23T09:39:30;98588.00;;;4.68;87.87
21728;BME280;11026;50.560;17.852;2022-11-23T09:52:49;98589.50;;;4.24;90.41
21728;BME280;11026;50.560;17.852;2022-11-23T09:55:38;98588.22;;;4.10;89.58
21728;BME280;11026;50.560;17.852;2022-11-23T09:58:12;98575.72;;;4.18;90.07
21728;BME280;11026;50.560;17.852;2022-11-23T10:00:54;98581.72;;;4.22;90.51
21728;BME280;11026;50.560;17.852;2022-11-23T10:03:31;98586.16;;;4.20;89.31
21728;BME280;11026;50.560;17.852;2022-11-23T10:06:26;98579.34;;;4.14;89.16
21728;BME280;11026;50.560;17.852;2022-11-23T10:12:02;98566.09;;;4.19;88.67
21728;BME280;11026;50.560;17.852;2022-11-23T10:25:20;98575.47;;;3.15;93.79
21728;BME280;11026;50.560;17.852;2022-11-23T10:27:52;98561.81;;;3.35;94.29
21728;BME280;11026;50.560;17.852;2022-11-23T10:30:21;98562.03;;;3.84;94.50
21728;BME280;11026;50.560;17.852;2022-11-23T10:32:59;98564.31;;;4.21;93.00
21728;BME280;11026;50.560;17.852;2022-11-23T10:35:30;98547.44;;;4.30;91.07
21728;BME280;11026;50.560;17.852;2022-11-23T10:38:18;98555.53;;;4.47;90.12
21728;BME280;11026;50.560;17.852;2022-11-23T10:43:55;98539.50;;;4.81;88.02
21728;BME280;11026;50.560;17.852;2022-11-23T10:49:20;98535.06;;;5.07;87.38
21728;BME280;11026;50.560;17.852;2022-11-23T10:51:59;98535.84;;;5.32;86.52
21728;BME280;11026;50.560;17.852;2022-11-23T10:57:19;98534.72;;;5.82;83.90
21728;BME280;11026;50.560;17.852;2022-11-23T11:02:50;98535.91;;;6.39;81.43
21728;BME280;11026;50.560;17.852;2022-11-23T11:05:35;98536.69;;;6.61;79.72
21728;BME280;11026;50.560;17.852;2022-11-23T11:08:28;98535.47;;;6.89;79.06
21728;BME280;11026;50.560;17.852;2022-11-23T11:14:13;98534.91;;;7.39;76.34
21728;BME280;11026;50.560;17.852;2022-11-23T11:16:52;98539.44;;;7.54;74.65
21728;BME280;11026;50.560;17.852;2022-11-23T11:19:30;98537.75;;;7.53;73.57
21728;BME280;11026;50.560;17.852;2022-11-23T11:22:00;98538.81;;;7.49;73.17
21728;BME280;11026;50.560;17.852;2022-11-23T11:27:04;98541.72;;;7.43;73.03
21728;BME280;11026;50.560;17.852;2022-11-23T11:32:21;98538.91;;;7.29;73.47
21728;BME280;11026;50.560;17.852;2022-11-23T11:34:57;98533.47;;;7.32;74.10
21728;BME280;11026;50.560;17.852;2022-11-23T11:37:35;98536.47;;;7.24;73.90
21728;BME280;11026;50.560;17.852;2022-11-23T11:40:29;98541.38;;;7.32;73.89
21728;BME280;11026;50.560;17.852;2022-11-23T11:43:28;98533.66;;;7.29;73.60
21728;BME280;11026;50.560;17.852;2022-11-23T11:46:14;98532.22;;;7.22;74.01
21728;BME280;11026;50.560;17.852;2022-11-23T11:49:23;98527.94;;;7.00;74.31
21728;BME280;11026;50.560;17.852;2022-11-23T11:52:03;98523.72;;;6.96;74.79
21728;BME280;11026;50.560;17.852;2022-11-23T11:54:45;98528.13;;;6.96;75.33
21728;BME280;11026;50.560;17.852;2022-11-23T11:57:23;98525.50;;;6.96;75.20
21728;BME280;11026;50.560;17.852;2022-11-23T11:59:55;98526.53;;;6.93;75.65
21728;BME280;11026;50.560;17.852;2022-11-23T12:02:30;98528.47;;;6.88;75.52
21728;BME280;11026;50.560;17.852;2022-11-23T12:05:23;98523.78;;;6.76;75.99
21728;BME280;11026;50.560;17.852;2022-11-23T12:10:45;98525.47;;;6.58;76.81
21728;BME280;11026;50.560;17.852;2022-11-23T12:13:26;98525.00;;;6.48;76.98
21728;BME280;11026;50.560;17.852;2022-11-23T12:16:26;98526.31;;;6.38;77.31
21728;BME280;11026;50.560;17.852;2022-11-23T12:19:15;98528.53;;;6.27;78.17
21728;BME280;11026;50.560;17.852;2022-11-23T12:22:01;98528.66;;;6.24;78.96
21728;BME280;11026;50.560;17.852;2022-11-23T12:24:53;98526.84;;;6.26;78.51
21728;BME280;11026;50.560;17.852;2022-11-23T12:46:47;98524.56;;;5.96;80.30
21728;BME280;11026;50.560;17.852;2022-11-23T12:49:44;98522.06;;;5.93;81.10
21728;BME280;11026;50.560;17.852;2022-11-23T12:55:22;98527.47;;;5.88;81.22
21728;BME280;11026;50.560;17.852;2022-11-23T12:57:58;98525.81;;;5.86;81.25
21728;BME280;11026;50.560;17.852;2022-11-23T13:01:03;98529.25;;;5.88;81.39
21728;BME280;11026;50.560;17.852;2022-11-23T13:28:29;98551.91;;;6.12;81.38
21728;BME280;11026;50.560;17.852;2022-11-23T13:31:17;98554.41;;;6.15;80.57
21728;BME280;11026;50.560;17.852;2022-11-23T13:33:47;98558.72;;;6.16;80.65
21728;BME280;11026;50.560;17.852;2022-11-23T13:39:59;98552.81;;;6.11;81.27
21728;BME280;11026;50.560;17.852;2022-11-23T13:42:25;98546.31;;;6.20;81.15
21728;BME280;11026;50.560;17.852;2022-11-23T13:45:12;98546.31;;;6.20;81.09
21728;BME280;11026;50.560;17.852;2022-11-23T13:48:02;98542.84;;;6.20;81.21
21728;BME280;11026;50.560;17.852;2022-11-23T13:50:31;98546.84;;;6.08;81.28
21728;BME280;11026;50.560;17.852;2022-11-23T13:52:59;98556.50;;;6.07;81.52
21728;BME280;11026;50.560;17.852;2022-11-23T13:55:36;98558.69;;;5.96;81.73
21728;BME280;11026;50.560;17.852;2022-11-23T14:09:11;98568.38;;;5.72;82.28
21728;BME280;11026;50.560;17.852;2022-11-23T14:14:46;98563.69;;;5.58;82.62
21728;BME280;11026;50.560;17.852;2022-11-23T14:31:13;98561.00;;;4.91;82.46
21728;BME280;11026;50.560;17.852;2022-11-23T14:42:34;98559.41;;;4.37;83.30
21728;BME280;11026;50.560;17.852;2022-11-23T14:45:05;98564.25;;;4.23;83.45
21728;BME280;11026;50.560;17.852;2022-11-23T14:47:32;98549.34;;;4.25;83.28
21728;BME280;11026;50.560;17.852;2022-11-23T14:50:00;98564.81;;;4.32;82.73
21728;BME280;11026;50.560;17.852;2022-11-23T14:52:30;98565.22;;;4.20;82.79
21728;BME280;11026;50.560;17.852;2022-11-23T14:55:00;98571.16;;;4.25;83.60
21728;BME280;11026;50.560;17.852;2022-11-23T14:57:41;98569.31;;;4.27;84.50
21728;BME280;11026;50.560;17.852;2022-11-23T15:00:40;98568.22;;;4.08;85.27
21728;BME280;11026;50.560;17.852;2022-11-23T15:03:15;98580.34;;;3.84;86.77
21728;BME280;11026;50.560;17.852;2022-11-23T15:06:09;98572.38;;;3.88;87.46
21728;BME280;11026;50.560;17.852;2022-11-23T15:08:51;98574.16;;;3.86;87.93
21728;BME280;11026;50.560;17.852;2022-11-23T15:11:25;98571.19;;;3.70;88.67
21728;BME280;11026;50.560;17.852;2022-11-23T15:13:54;98578.13;;;3.43;89.61
21728;BME280;11026;50.560;17.852;2022-11-23T15:16:38;98575.09;;;3.28;89.60
21728;BME280;11026;50.560;17.852;2022-11-23T15:19:25;98581.19;;;2.99;89.36
21728;BME280;11026;50.560;17.852;2022-11-23T15:21:55;98572.88;;;2.84;89.93
21728;BME280;11026;50.560;17.852;2022-11-23T15:24:25;98575.38;;;2.56;90.59
21728;BME280;11026;50.560;17.852;2022-11-23T15:27:02;98587.06;;;2.76;91.57
21728;BME280;11026;50.560;17.852;2022-11-23T15:29:38;98580.19;;;2.71;91.63
21728;BME280;11026;50.560;17.852;2022-11-23T15:32:25;98584.19;;;2.52;92.44
21728;BME280;11026;50.560;17.852;2022-11-23T15:35:05;98590.13;;;2.26;93.74
21728;BME280;11026;50.560;17.852;2022-11-23T15:37:45;98594.63;;;2.19;94.91
21728;BME280;11026;50.560;17.852;2022-11-23T15:40:15;98593.50;;;2.30;95.66
21728;BME280;11026;50.560;17.852;2022-11-23T15:42:44;98597.06;;;2.26;95.95
21728;BME280;11026;50.560;17.852;2022-11-23T15:48:20;98584.72;;;1.98;97.89
21728;BME280;11026;50.560;17.852;2022-11-23T15:50:54;98582.84;;;2.03;98.23